Accueil
METAR-TAF:

METAR-TAF

Aéroports :

Aéroport international de Raleigh-Durham

Raleigh / Durham, Caroline du Nord, États-Unis

latitude: 35-52-14N, longitude: 078-47-11W, altitude: 133 m

Observation

Le bulletin a été fait il y a 52 minutes, à 17:51 UTC
Vent 6 kt de direction variable
Température 23°C
Humidité 50%
Pression 1013 hPa
Visibilité: 16.1 km
Quelques nuages à une hauteur de 4600 ft
Quelques nuages à une hauteur de 25000 ft

METAR: KRDU 231751Z VRB06KT 10SM FEW046 FEW250 23/12 A2992 RMK AO2 SLP128 T02330122 10239 20156 58002

Heure: 14:43 (18:43 UTC)

Prévision

Le bulletin a été fait il y a 1 heure et 4 minutes, à 17:39 UTC
Prévision valable du 23 à 18 UTC au 24 à 18 UTC
Vent 6 kt de nord-ouest
Visibilité: 10 km
Quelques nuages à une hauteur de 4000 ft

TAF: KRDU 231739Z 2318/2418 31006KT P6SM FEW040

Observations et prévisions météorologiques de plus de 4000 aéroports (messages METAR et TAF).

Les stations disponibles sont représentées par des disques jaunes et rouges sur la carte.

Passer la souris dessus pour voir le nom de la station.

Cliquer dessus pour voir les observations et prévisions météorologiques.

Pour changer de carte: cliquez sur les boutons verts avec une croix noire pour zoomer, sur le bouton vert avec un tiret pour effectuer un zoom arrière, ou sur les flèches vertes pour les cartes adjacentes.


METAR-TAF: